Aviation Digital Data Service (ADDS)

Output produced by METARs form (1243 UTC 16 July 2019)
found at http://www.aviationweather.gov/metar/data/
 
METAR text: DFOO 161200Z 21011KT 9999 BKN016 27/22 Q1014
Conditions at: DFOO (BOBO-DIOULASSO , BF) observed 1200 UTC 16 July 2019
Temperature: 27.0°C (81°F)
Dewpoint: 22.0°C (72°F) [RH = 74%]
Pressure (altimeter): 29.94 inches Hg (1014.0 mb)
Winds: from the SSW (210 degrees) at 13 MPH (11 knots; 5.7 m/s)
Visibility: 6 or more miles (10+ km)
Ceiling: 1600 feet AGL
Clouds: broken clouds at 1600 feet AGL
Weather: no significant weather observed at this time

METAR text: DFOO 161100Z 18010KT 150V220 9999 SCT010 BKN016 26/22 Q1014
Conditions at: DFOO (BOBO-DIOULASSO , BF) observed 1100 UTC 16 July 2019
Temperature: 26.0°C (79°F)
Dewpoint: 22.0°C (72°F) [RH = 79%]
Pressure (altimeter): 29.94 inches Hg (1014.0 mb)
Winds: from the S (180 degrees) at 12 MPH (10 knots; 5.1 m/s)
Visibility: 6 or more miles (10+ km)
Ceiling: 1600 feet AGL
Clouds: scattered clouds at 1000 feet AGL
broken clouds at 1600 feet AGL
Weather: no significant weather observed at this time

METAR text: DFOO 161000Z 18010KT 9999 FEW010 BKN016 25/21 Q1014
Conditions at: DFOO (BOBO-DIOULASSO , BF) observed 1000 UTC 16 July 2019
Temperature: 25.0°C (77°F)
Dewpoint: 21.0°C (70°F) [RH = 79%]
Pressure (altimeter): 29.94 inches Hg (1014.0 mb)
Winds: from the S (180 degrees) at 12 MPH (10 knots; 5.1 m/s)
Visibility: 6 or more miles (10+ km)
Ceiling: 1600 feet AGL
Clouds: few clouds at 1000 feet AGL
broken clouds at 1600 feet AGL
Weather: no significant weather observed at this time

METAR text: DFOO 160900Z 19008KT 9999 FEW010 24/21 Q1014
Conditions at: DFOO (BOBO-DIOULASSO , BF) observed 0900 UTC 16 July 2019
Temperature: 24.0°C (75°F)
Dewpoint: 21.0°C (70°F) [RH = 83%]
Pressure (altimeter): 29.94 inches Hg (1014.0 mb)
Winds: from the S (190 degrees) at 9 MPH (8 knots; 4.1 m/s)
Visibility: 6 or more miles (10+ km)
Ceiling: at least 12,000 feet AGL
Clouds: few clouds at 1000 feet AGL
Weather: no significant weather observed at this time

METAR text: DFOO 160800Z 18005KT 140V210 9999 FEW010 23/21 Q1014
Conditions at: DFOO (BOBO-DIOULASSO , BF) observed 0800 UTC 16 July 2019
Temperature: 23.0°C (73°F)
Dewpoint: 21.0°C (70°F) [RH = 89%]
Pressure (altimeter): 29.94 inches Hg (1014.0 mb)
Winds: from the S (180 degrees) at 6 MPH (5 knots; 2.6 m/s)
Visibility: 6 or more miles (10+ km)
Ceiling: at least 12,000 feet AGL
Clouds: few clouds at 1000 feet AGL
Weather: no significant weather observed at this time

METAR text: DFOO 160700Z 18005KT 150V210 9999 FEW010 22/21 Q1013
Conditions at: DFOO (BOBO-DIOULASSO , BF) observed 0700 UTC 16 July 2019
Temperature: 22.0°C (72°F)
Dewpoint: 21.0°C (70°F) [RH = 94%]
Pressure (altimeter): 29.91 inches Hg (1013.0 mb)
Winds: from the S (180 degrees) at 6 MPH (5 knots; 2.6 m/s)
Visibility: 6 or more miles (10+ km)
Ceiling: at least 12,000 feet AGL
Clouds: few clouds at 1000 feet AGL
Weather: no significant weather observed at this time

METAR text: DFOO 160600Z 16006KT CAVOK 21/20 Q1013
Conditions at: DFOO (BOBO-DIOULASSO , BF) observed 0600 UTC 16 July 2019
Temperature: 21.0°C (70°F)
Dewpoint: 20.0°C (68°F) [RH = 94%]
Pressure (altimeter): 29.91 inches Hg (1013.0 mb)
Winds: from the SSE (160 degrees) at 7 MPH (6 knots; 3.1 m/s)
Visibility: 6 or more miles (10+ km)
Ceiling: ceiling and visibility are OK
Clouds: unknown
Weather: no significant weather observed at this time

METAR text: DFOO 160500Z 00000KT CAVOK 22/21 Q1012
Conditions at: DFOO (BOBO-DIOULASSO , BF) observed 0500 UTC 16 July 2019
Temperature: 22.0°C (72°F)
Dewpoint: 21.0°C (70°F) [RH = 94%]
Pressure (altimeter): 29.88 inches Hg (1012.0 mb)
Winds: calm
Visibility: 6 or more miles (10+ km)
Ceiling: ceiling and visibility are OK
Clouds: unknown
Weather: no significant weather observed at this time

METAR text: DFOO 160400Z 00000KT CAVOK 22/21 Q1012
Conditions at: DFOO (BOBO-DIOULASSO , BF) observed 0400 UTC 16 July 2019
Temperature: 22.0°C (72°F)
Dewpoint: 21.0°C (70°F) [RH = 94%]
Pressure (altimeter): 29.88 inches Hg (1012.0 mb)
Winds: calm
Visibility: 6 or more miles (10+ km)
Ceiling: ceiling and visibility are OK
Clouds: unknown
Weather: no significant weather observed at this time

METAR text: DFOO 160200Z 00000KT CAVOK 22/21 Q1013
Conditions at: DFOO (BOBO-DIOULASSO , BF) observed 0200 UTC 16 July 2019
Temperature: 22.0°C (72°F)
Dewpoint: 21.0°C (70°F) [RH = 94%]
Pressure (altimeter): 29.91 inches Hg (1013.0 mb)
Winds: calm
Visibility: 6 or more miles (10+ km)
Ceiling: ceiling and visibility are OK
Clouds: unknown
Weather: no significant weather observed at this time

METAR text: DFOO 160100Z 00000KT CAVOK 22/21 Q1013
Conditions at: DFOO (BOBO-DIOULASSO , BF) observed 0100 UTC 16 July 2019
Temperature: 22.0°C (72°F)
Dewpoint: 21.0°C (70°F) [RH = 94%]
Pressure (altimeter): 29.91 inches Hg (1013.0 mb)
Winds: calm
Visibility: 6 or more miles (10+ km)
Ceiling: ceiling and visibility are OK
Clouds: unknown
Weather: no significant weather observed at this time

METAR text: DFOO 160000Z 00000KT CAVOK 22/21 Q1013
Conditions at: DFOO (BOBO-DIOULASSO , BF) observed 0000 UTC 16 July 2019
Temperature: 22.0°C (72°F)
Dewpoint: 21.0°C (70°F) [RH = 94%]
Pressure (altimeter): 29.91 inches Hg (1013.0 mb)
Winds: calm
Visibility: 6 or more miles (10+ km)
Ceiling: ceiling and visibility are OK
Clouds: unknown
Weather: no significant weather observed at this time

METAR text: DFOO 152300Z 00000KT CAVOK 22/22 Q1013
Conditions at: DFOO (BOBO-DIOULASSO , BF) observed 2300 UTC 15 July 2019
Temperature: 22.0°C (72°F)
Dewpoint: 22.0°C (72°F) [RH = 100%]
Pressure (altimeter): 29.91 inches Hg (1013.0 mb)
Winds: calm
Visibility: 6 or more miles (10+ km)
Ceiling: ceiling and visibility are OK
Clouds: unknown
Weather: no significant weather observed at this time

METAR text: DFOO 152200Z 12002KT 9999 TS SCT010 FEW033CB 22/22 Q1013
Conditions at: DFOO (BOBO-DIOULASSO , BF) observed 2200 UTC 15 July 2019
Temperature: 22.0°C (72°F)
Dewpoint: 22.0°C (72°F) [RH = 100%]
Pressure (altimeter): 29.91 inches Hg (1013.0 mb)
Winds: from the ESE (120 degrees) at 2 MPH (2 knots; 1.0 m/s)
Visibility: 6 or more miles (10+ km)
Ceiling: at least 12,000 feet AGL
Clouds: scattered clouds at 1000 feet AGL
few clouds at 3300 feet AGL
Weather: TS  (thunderstorm)

METAR text: DFOO 152100Z 14004KT 9999 TS FEW016 FEW033CB 22/21 Q1012
Conditions at: DFOO (BOBO-DIOULASSO , BF) observed 2100 UTC 15 July 2019
Temperature: 22.0°C (72°F)
Dewpoint: 21.0°C (70°F) [RH = 94%]
Pressure (altimeter): 29.88 inches Hg (1012.0 mb)
Winds: from the SE (140 degrees) at 5 MPH (4 knots; 2.1 m/s)
Visibility: 6 or more miles (10+ km)
Ceiling: at least 12,000 feet AGL
Clouds: few clouds at 1600 feet AGL
few clouds at 3300 feet AGL
Weather: TS  (thunderstorm)

METAR text: DFOO 152000Z 24005KT 9999 TS FEW016 FEW033CB 21/21 Q1011
Conditions at: DFOO (BOBO-DIOULASSO , BF) observed 2000 UTC 15 July 2019
Temperature: 21.0°C (70°F)
Dewpoint: 21.0°C (70°F) [RH = 100%]
Pressure (altimeter): 29.85 inches Hg (1011.0 mb)
Winds: from the WSW (240 degrees) at 6 MPH (5 knots; 2.6 m/s)
Visibility: 6 or more miles (10+ km)
Ceiling: at least 12,000 feet AGL
Clouds: few clouds at 1600 feet AGL
few clouds at 3300 feet AGL
Weather: TS  (thunderstorm)

METAR text: DFOO 151900Z 22004KT 9999 -TSRA FEW033CB 22/21 Q1013
Conditions at: DFOO (BOBO-DIOULASSO , BF) observed 1900 UTC 15 July 2019
Temperature: 22.0°C (72°F)
Dewpoint: 21.0°C (70°F) [RH = 94%]
Pressure (altimeter): 29.91 inches Hg (1013.0 mb)
Winds: from the SW (220 degrees) at 5 MPH (4 knots; 2.1 m/s)
Visibility: 6 or more miles (10+ km)
Ceiling: at least 12,000 feet AGL
Clouds: few clouds at 3300 feet AGL
Weather: -TSRA  (light rain associated with thunderstorm(s))

METAR text: DFOO 151800Z 06011KT 8000 -TSRA FEW016 FEW033CB 21/20 Q1013
Conditions at: DFOO (BOBO-DIOULASSO , BF) observed 1800 UTC 15 July 2019
Temperature: 21.0°C (70°F)
Dewpoint: 20.0°C (68°F) [RH = 94%]
Pressure (altimeter): 29.91 inches Hg (1013.0 mb)
Winds: from the ENE (60 degrees) at 13 MPH (11 knots; 5.7 m/s)
Visibility: 5 miles ( 8 km)
Ceiling: at least 12,000 feet AGL
Clouds: few clouds at 1600 feet AGL
few clouds at 3300 feet AGL
Weather: -TSRA  (light rain associated with thunderstorm(s))

METAR text: DFOO 151700Z 05023G37KT 020V080 1600 TSRA SQ FEW016 SCT033CB 21/20 Q1015
Conditions at: DFOO (BOBO-DIOULASSO , BF) observed 1700 UTC 15 July 2019
Temperature: 21.0°C (70°F)
Dewpoint: 20.0°C (68°F) [RH = 94%]
Pressure (altimeter): 29.97 inches Hg (1015.0 mb)
Winds: from the NE (50 degrees) at 26 MPH (23 knots; 11.8 m/s)
gusting to 43 MPH (37 knots; 19.0 m/s)
Visibility: 0.99 miles (1.59 km)
Ceiling: at least 12,000 feet AGL
Clouds: few clouds at 1600 feet AGL
scattered clouds at 3300 feet AGL
Weather: TSRA SQ  (rain associated with thunderstorm(s), squal)

METAR text: DFOO 151600Z 14004KT 140V180 9999 TS FEW016 FEW033CB 31/23 Q1011
Conditions at: DFOO (BOBO-DIOULASSO , BF) observed 1600 UTC 15 July 2019
Temperature: 31.0°C (88°F)
Dewpoint: 23.0°C (73°F) [RH = 63%]
Pressure (altimeter): 29.85 inches Hg (1011.0 mb)
Winds: from the SE (140 degrees) at 5 MPH (4 knots; 2.1 m/s)
Visibility: 6 or more miles (10+ km)
Ceiling: at least 12,000 feet AGL
Clouds: few clouds at 1600 feet AGL
few clouds at 3300 feet AGL
Weather: TS  (thunderstorm)

METAR text: DFOO 151500Z VRB02KT 9999 FEW016 SCT026 31/23 Q1011
Conditions at: DFOO (BOBO-DIOULASSO , BF) observed 1500 UTC 15 July 2019
Temperature: 31.0°C (88°F)
Dewpoint: 23.0°C (73°F) [RH = 63%]
Pressure (altimeter): 29.85 inches Hg (1011.0 mb)
Winds: variable direction winds at 2 MPH (2 knots; 1.0 m/s)
Visibility: 6 or more miles (10+ km)
Ceiling: at least 12,000 feet AGL
Clouds: few clouds at 1600 feet AGL
scattered clouds at 2600 feet AGL
Weather: no significant weather observed at this time

METAR text: DFOO 151300Z 25006KT 220V300 9999 SCT016 30/23 Q1012
Conditions at: DFOO (BOBO-DIOULASSO , BF) observed 1300 UTC 15 July 2019
Temperature: 30.0°C (86°F)
Dewpoint: 23.0°C (73°F) [RH = 66%]
Pressure (altimeter): 29.88 inches Hg (1012.0 mb)
Winds: from the WSW (250 degrees) at 7 MPH (6 knots; 3.1 m/s)
Visibility: 6 or more miles (10+ km)
Ceiling: at least 12,000 feet AGL
Clouds: scattered clouds at 1600 feet AGL
Weather: no significant weather observed at this time

METAR text: DFOO 151200Z 24006KT 170V300 9999 SCT016 30/22 Q1013
Conditions at: DFOO (BOBO-DIOULASSO , BF) observed 1200 UTC 15 July 2019
Temperature: 30.0°C (86°F)
Dewpoint: 22.0°C (72°F) [RH = 62%]
Pressure (altimeter): 29.91 inches Hg (1013.0 mb)
Winds: from the WSW (240 degrees) at 7 MPH (6 knots; 3.1 m/s)
Visibility: 6 or more miles (10+ km)
Ceiling: at least 12,000 feet AGL
Clouds: scattered clouds at 1600 feet AGL
Weather: no significant weather observed at this time

METAR text: DFOO 151100Z 23007KT 200V300 9999 FEW016 29/24 Q1014
Conditions at: DFOO (BOBO-DIOULASSO , BF) observed 1100 UTC 15 July 2019
Temperature: 29.0°C (84°F)
Dewpoint: 24.0°C (75°F) [RH = 74%]
Pressure (altimeter): 29.94 inches Hg (1014.0 mb)
Winds: from the SW (230 degrees) at 8 MPH (7 knots; 3.6 m/s)
Visibility: 6 or more miles (10+ km)
Ceiling: at least 12,000 feet AGL
Clouds: few clouds at 1600 feet AGL
Weather: no significant weather observed at this time

METAR text: DFOO 151000Z 20007KT 170V230 9999 FEW016 28/23 Q1014
Conditions at: DFOO (BOBO-DIOULASSO , BF) observed 1000 UTC 15 July 2019
Temperature: 28.0°C (82°F)
Dewpoint: 23.0°C (73°F) [RH = 74%]
Pressure (altimeter): 29.94 inches Hg (1014.0 mb)
Winds: from the SSW (200 degrees) at 8 MPH (7 knots; 3.6 m/s)
Visibility: 6 or more miles (10+ km)
Ceiling: at least 12,000 feet AGL
Clouds: few clouds at 1600 feet AGL
Weather: no significant weather observed at this time

METAR text: DFOO 150900Z 21007KT 190V250 CAVOK 27/22 Q1014
Conditions at: DFOO (BOBO-DIOULASSO , BF) observed 0900 UTC 15 July 2019
Temperature: 27.0°C (81°F)
Dewpoint: 22.0°C (72°F) [RH = 74%]
Pressure (altimeter): 29.94 inches Hg (1014.0 mb)
Winds: from the SSW (210 degrees) at 8 MPH (7 knots; 3.6 m/s)
Visibility: 6 or more miles (10+ km)
Ceiling: ceiling and visibility are OK
Clouds: unknown
Weather: no significant weather observed at this time

METAR text: DFOO 150800Z 20007KT CAVOK 26/22 Q1014
Conditions at: DFOO (BOBO-DIOULASSO , BF) observed 0800 UTC 15 July 2019
Temperature: 26.0°C (79°F)
Dewpoint: 22.0°C (72°F) [RH = 79%]
Pressure (altimeter): 29.94 inches Hg (1014.0 mb)
Winds: from the SSW (200 degrees) at 8 MPH (7 knots; 3.6 m/s)
Visibility: 6 or more miles (10+ km)
Ceiling: ceiling and visibility are OK
Clouds: unknown
Weather: no significant weather observed at this time

METAR text: DFOO 150700Z 19003KT 9999 FEW016 24/23 Q1014
Conditions at: DFOO (BOBO-DIOULASSO , BF) observed 0700 UTC 15 July 2019
Temperature: 24.0°C (75°F)
Dewpoint: 23.0°C (73°F) [RH = 94%]
Pressure (altimeter): 29.94 inches Hg (1014.0 mb)
Winds: from the S (190 degrees) at 3 MPH (3 knots; 1.5 m/s)
Visibility: 6 or more miles (10+ km)
Ceiling: at least 12,000 feet AGL
Clouds: few clouds at 1600 feet AGL
Weather: no significant weather observed at this time

METAR text: DFOO 150600Z 19003KT 9999 FEW016 24/23 Q1014
Conditions at: DFOO (BOBO-DIOULASSO , BF) observed 0600 UTC 15 July 2019
Temperature: 24.0°C (75°F)
Dewpoint: 23.0°C (73°F) [RH = 94%]
Pressure (altimeter): 29.94 inches Hg (1014.0 mb)
Winds: from the S (190 degrees) at 3 MPH (3 knots; 1.5 m/s)
Visibility: 6 or more miles (10+ km)
Ceiling: at least 12,000 feet AGL
Clouds: few clouds at 1600 feet AGL
Weather: no significant weather observed at this time

METAR text: DFOO 150500Z 21004KT 9999 FEW016 24/23 Q1014
Conditions at: DFOO (BOBO-DIOULASSO , BF) observed 0500 UTC 15 July 2019
Temperature: 24.0°C (75°F)
Dewpoint: 23.0°C (73°F) [RH = 94%]
Pressure (altimeter): 29.94 inches Hg (1014.0 mb)
Winds: from the SSW (210 degrees) at 5 MPH (4 knots; 2.1 m/s)
Visibility: 6 or more miles (10+ km)
Ceiling: at least 12,000 feet AGL
Clouds: few clouds at 1600 feet AGL
Weather: no significant weather observed at this time

METAR text: DFOO 150400Z 17004KT 9999 FEW016 25/23 Q1014
Conditions at: DFOO (BOBO-DIOULASSO , BF) observed 0400 UTC 15 July 2019
Temperature: 25.0°C (77°F)
Dewpoint: 23.0°C (73°F) [RH = 89%]
Pressure (altimeter): 29.94 inches Hg (1014.0 mb)
Winds: from the S (170 degrees) at 5 MPH (4 knots; 2.1 m/s)
Visibility: 6 or more miles (10+ km)
Ceiling: at least 12,000 feet AGL
Clouds: few clouds at 1600 feet AGL
Weather: no significant weather observed at this time

METAR text: DFOO 150300Z 21007KT 9999 FEW016 25/23 Q1014
Conditions at: DFOO (BOBO-DIOULASSO , BF) observed 0300 UTC 15 July 2019
Temperature: 25.0°C (77°F)
Dewpoint: 23.0°C (73°F) [RH = 89%]
Pressure (altimeter): 29.94 inches Hg (1014.0 mb)
Winds: from the SSW (210 degrees) at 8 MPH (7 knots; 3.6 m/s)
Visibility: 6 or more miles (10+ km)
Ceiling: at least 12,000 feet AGL
Clouds: few clouds at 1600 feet AGL
Weather: no significant weather observed at this time

METAR text: DFOO 150200Z 21004KT 170V240 9999 FEW016 26/23 Q1014
Conditions at: DFOO (BOBO-DIOULASSO , BF) observed 0200 UTC 15 July 2019
Temperature: 26.0°C (79°F)
Dewpoint: 23.0°C (73°F) [RH = 84%]
Pressure (altimeter): 29.94 inches Hg (1014.0 mb)
Winds: from the SSW (210 degrees) at 5 MPH (4 knots; 2.1 m/s)
Visibility: 6 or more miles (10+ km)
Ceiling: at least 12,000 feet AGL
Clouds: few clouds at 1600 feet AGL
Weather: no significant weather observed at this time

METAR text: DFOO 150100Z 20004KT 9999 FEW016 26/23 Q1014
Conditions at: DFOO (BOBO-DIOULASSO , BF) observed 0100 UTC 15 July 2019
Temperature: 26.0°C (79°F)
Dewpoint: 23.0°C (73°F) [RH = 84%]
Pressure (altimeter): 29.94 inches Hg (1014.0 mb)
Winds: from the SSW (200 degrees) at 5 MPH (4 knots; 2.1 m/s)
Visibility: 6 or more miles (10+ km)
Ceiling: at least 12,000 feet AGL
Clouds: few clouds at 1600 feet AGL
Weather: no significant weather observed at this time

Forecast for: DFOO (BOBO-DIOULASSO , BF)
Text: TAF DFOO 161100Z 1612/1712 20008KT 9999 SCT016
Forecast period: 1200 UTC 16 July 2019 to 1200 UTC 17 July 2019
Forecast type: FROM: standard forecast or significant change
Winds: from the SSW (200 degrees) at 9 MPH (8 knots; 4.1 m/s)
Visibility: 6 or more miles 10+ km)
Ceiling: at least 12,000 feet AGL
Clouds: scattered clouds at 1600 feet AGL
Weather: no significant weather forecast for this period
Text: TEMPO 1616/1702 4000 TSRA SCT016 SCT030CB
Forecast period: 1600 UTC 16 July 2019 to 0200 UTC 17 July 2019
Forecast type: TEMPORARY: The following changes expected for less than half the time period
Visibility: 2.49 miles (4.01 km)
Ceiling: at least 12,000 feet AGL
Clouds: scattered clouds at 1600 feet AGL
scattered clouds at 3000 feet AGL
Weather: TSRA  (rain associated with thunderstorm(s))